Time;durP1;ratioP1;P1;durP2;ratioP2;P2;SDS_P1;SDS_P2;PMS_P1;PMS_P2;Temp;Humidity;BMP_temperature;BMP_pressure;BME280_temperature;BME280_humidity;BME280_pressure;Samples;Min_cycle;Max_cycle;Signal;HPM_P1;HPM_P2
2021/11/02 00:00:56;;;;;;;7.30;3.85;;;;;;;7.42;100.00;99836.50;5265373;28;20440;-68
2021/11/02 00:03:27;;;;;;;6.32;3.72;;;;;;;7.40;100.00;99830.59;5266232;28;20033;-68
2021/11/02 00:05:59;;;;;;;12.52;3.40;;;;;;;7.45;100.00;99829.22;5266490;28;20032;-68
2021/11/02 00:08:30;;;;;;;12.30;3.80;;;;;;;7.45;100.00;99829.22;5267770;28;20060;-68
2021/11/02 00:11:02;;;;;;;7.53;3.47;;;;;;;7.47;100.00;99834.31;5263446;28;20085;-69
2021/11/02 00:13:38;;;;;;;6.07;3.72;;;;;;;7.47;100.00;99831.72;5267025;28;20162;-69
2021/11/02 00:16:12;;;;;;;11.90;4.43;;;;;;;7.42;100.00;99832.09;5267298;28;20027;-68
2021/11/02 00:18:46;;;;;;;8.35;3.70;;;;;;;7.41;100.00;99822.66;5265790;28;20033;-68
2021/11/02 00:21:18;;;;;;;7.55;4.05;;;;;;;7.33;100.00;99819.88;5266770;28;20078;-68
2021/11/02 00:23:57;;;;;;;8.35;4.10;;;;;;;7.39;100.00;99826.34;5298927;28;20111;-68
2021/11/02 00:26:28;;;;;;;7.93;4.00;;;;;;;7.35;100.00;99823.19;5261917;28;20028;-68
2021/11/02 00:28:59;;;;;;;9.02;4.93;;;;;;;7.33;100.00;99819.88;5264697;28;20032;-68
2021/11/02 00:31:31;;;;;;;8.27;4.72;;;;;;;7.33;100.00;99825.09;5265548;28;20085;-68
2021/11/02 00:34:03;;;;;;;9.25;4.70;;;;;;;7.28;100.00;99817.69;5266749;28;20505;-69
2021/11/02 00:36:34;;;;;;;8.88;4.28;;;;;;;7.29;100.00;99814.13;5265645;28;20068;-68
2021/11/02 00:39:05;;;;;;;9.82;4.20;;;;;;;7.29;100.00;99814.13;5265434;28;20098;-68
2021/11/02 00:41:37;;;;;;;12.65;4.53;;;;;;;7.29;100.00;99813.31;5268281;28;20390;-68
2021/11/02 00:44:08;;;;;;;7.68;4.53;;;;;;;7.28;100.00;99819.47;5263313;28;20482;-68
2021/11/02 00:46:39;;;;;;;9.07;4.70;;;;;;;7.27;100.00;99815.19;5264988;28;20040;-68
2021/11/02 00:49:17;;;;;;;11.07;4.97;;;;;;;7.27;100.00;99817.81;5265721;28;20027;-68
2021/11/02 00:51:49;;;;;;;8.30;4.88;;;;;;;7.24;100.00;99816.31;5266221;28;20629;-68
2021/11/02 00:54:20;;;;;;;9.48;4.45;;;;;;;7.23;100.00;99824.25;5263387;28;20028;-68
2021/11/02 00:56:51;;;;;;;8.68;4.75;;;;;;;7.22;100.00;99823.44;5265514;28;20083;-68
2021/11/02 00:59:23;;;;;;;8.95;4.50;;;;;;;7.21;100.00;99818.38;5264232;28;20597;-68
2021/11/02 01:01:55;;;;;;;7.70;4.40;;;;;;;7.19;100.00;99817.66;5262916;28;20512;-68
2021/11/02 01:04:27;;;;;;;9.83;4.87;;;;;;;7.19;100.00;99822.88;5267165;28;20025;-68
2021/11/02 01:06:58;;;;;;;8.13;4.78;;;;;;;7.17;100.00;99824.81;5265671;28;20017;-68
2021/11/02 01:09:29;;;;;;;9.75;4.90;;;;;;;7.16;100.00;99823.97;5265198;28;20153;-68
2021/11/02 01:12:01;;;;;;;9.85;4.70;;;;;;;7.17;100.00;99824.81;5266471;28;20027;-68
2021/11/02 01:14:32;;;;;;;9.32;4.78;;;;;;;7.17;100.00;99824.81;5265277;28;20024;-68
2021/11/02 01:17:04;;;;;;;7.47;5.07;;;;;;;7.16;100.00;99828.34;5265249;28;20111;-68
2021/11/02 01:19:35;;;;;;;8.43;4.60;;;;;;;7.13;100.00;99823.41;5263563;28;20033;-68
2021/11/02 01:22:06;;;;;;;9.95;5.18;;;;;;;7.13;100.00;99828.63;5266441;28;20032;-68
2021/11/02 01:24:39;;;;;;;7.28;5.10;;;;;;;7.07;100.00;99825.56;5265292;28;20062;-68
2021/11/02 01:27:10;;;;;;;8.32;5.13;;;;;;;7.04;100.00;99825.84;5263901;28;20410;-68
2021/11/02 01:29:41;;;;;;;11.63;4.90;;;;;;;7.07;100.00;99820.38;5265152;28;20068;-68
2021/11/02 01:32:12;;;;;;;7.40;5.05;;;;;;;7.05;100.00;99821.47;5264128;28;20879;-68
2021/11/02 01:34:44;;;;;;;8.48;4.88;;;;;;;7.04;100.00;99825.84;5262017;28;20370;-71
2021/11/02 01:37:15;;;;;;;9.77;5.30;;;;;;;7.05;100.00;99829.28;5264847;28;20041;-68
2021/11/02 01:39:46;;;;;;;6.65;4.28;;;;;;;7.05;100.00;99824.09;5264388;28;20556;-68
2021/11/02 01:42:21;;;;;;;10.85;4.97;;;;;;;7.04;100.00;99825.84;5262191;28;20051;-68
2021/11/02 01:44:53;;;;;;;9.90;4.80;;;;;;;7.03;100.00;99820.78;5266445;28;20032;-68
2021/11/02 01:47:25;;;;;;;7.10;4.63;;;;;;;7.02;100.00;99824.34;5265307;28;20493;-68
2021/11/02 01:49:57;;;;;;;7.07;4.40;;;;;;;7.01;100.00;99823.53;5261703;28;20041;-68
2021/11/02 01:52:29;;;;;;;7.68;4.43;;;;;;;7.00;100.00;99823.63;5265980;28;20056;-68
2021/11/02 01:55:01;;;;;;;10.90;4.53;;;;;;;7.02;100.00;99816.53;5263904;28;20143;-68
2021/11/02 01:57:32;;;;;;;6.53;4.63;;;;;;;7.00;100.00;99821.84;5263593;28;20039;-68
2021/11/02 02:00:08;;;;;;;8.27;4.47;;;;;;;7.07;100.00;99816.94;5269106;28;20036;-68
2021/11/02 02:03:02;;;;;;;9.90;4.38;;;;;;;7.19;100.00;99821.09;5272245;28;20060;-68
2021/11/02 02:06:08;;;;;;;6.93;4.10;;;;;;;7.15;100.00;99816.28;5269261;28;20386;-68
2021/11/02 02:08:56;;;;;;;7.68;4.15;;;;;;;7.13;100.00;99821.63;5268562;28;20029;-68
2021/11/02 02:11:46;;;;;;;6.47;3.95;;;;;;;7.16;100.00;99812.72;5271328;28;20032;-68
2021/11/02 02:14:27;;;;;;;9.18;4.78;;;;;;;7.07;100.00;99820.38;5270322;28;20025;-68
2021/11/02 02:17:01;;;;;;;7.30;4.10;;;;;;;6.98;100.00;99815.97;5302885;28;20028;-69
2021/11/02 02:19:38;;;;;;;7.97;3.78;;;;;;;7.08;100.00;99815.97;5271642;28;20036;-68
2021/11/02 02:22:31;;;;;;;8.15;4.20;;;;;;;7.14;100.00;99814.63;5271936;28;20075;-68
2021/11/02 02:25:12;;;;;;;8.77;3.85;;;;;;;7.06;100.00;99813.53;5270112;28;20033;-68
2021/11/02 02:27:55;;;;;;;9.82;4.60;;;;;;;7.00;100.00;99802.81;5270379;28;20108;-68
2021/11/02 02:30:27;;;;;;;9.32;5.35;;;;;;;6.90;100.00;99813.22;5270200;28;20116;-68
2021/11/02 02:33:01;;;;;;;10.80;4.20;;;;;;;6.86;100.00;99809.22;5269796;28;20024;-68
2021/11/02 02:35:34;;;;;;;9.23;4.07;;;;;;;6.85;100.00;99810.16;5271088;28;20055;-68
2021/11/02 02:38:06;;;;;;;8.63;4.60;;;;;;;6.87;100.00;99804.84;5271280;28;20090;-69
2021/11/02 02:40:40;;;;;;;10.83;5.13;;;;;;;6.86;100.00;99793.59;5269466;28;20033;-68
2021/11/02 02:43:12;;;;;;;7.18;4.38;;;;;;;6.78;100.00;99798.59;5269370;28;20432;-68
2021/11/02 02:45:44;;;;;;;7.43;3.92;;;;;;;6.77;100.00;99799.56;5273271;28;20497;-68
2021/11/02 02:48:19;;;;;;;8.18;4.40;;;;;;;6.76;100.00;99790.94;5272382;28;20099;-68
2021/11/02 02:50:52;;;;;;;6.82;3.95;;;;;;;6.75;100.00;99789.31;5267322;28;20034;-68
2021/11/02 02:53:25;;;;;;;5.80;4.20;;;;;;;6.72;100.00;99775.72;5271062;28;20111;-68
2021/11/02 02:56:01;;;;;;;10.95;4.00;;;;;;;6.72;100.00;99776.56;5269145;28;20024;-68
2021/11/02 02:58:35;;;;;;;7.90;4.05;;;;;;;6.72;100.00;99773.94;5267823;28;20033;-68
2021/11/02 03:01:08;;;;;;;8.68;3.70;;;;;;;6.68;100.00;99785.56;5266464;28;20382;-69
2021/11/02 03:03:43;;;;;;;;;;;;;;;7.10;100.00;99785.44;5271845;28;20331;-68
2021/11/02 03:06:19;;;;;;;8.25;3.88;;;;;;;6.72;100.00;99793.94;5271125;28;19916;-69
2021/11/02 03:08:52;;;;;;;6.85;3.88;;;;;;;6.63;100.00;99786.91;5268459;28;20064;-68
2021/11/02 03:11:24;;;;;;;11.05;4.57;;;;;;;6.64;100.00;99788.59;5266862;28;20048;-69
2021/11/02 03:13:57;;;;;;;9.87;4.07;;;;;;;6.59;100.00;99788.94;5266617;28;20116;-68
2021/11/02 03:17:16;;;;;;;6.50;3.80;;;;;;;6.62;100.00;99782.66;5267923;28;20361;-69
2021/11/02 03:51:10;;;;;;;;;;;;;;;6.99;100.00;99790.75;5267298;28;20033;-69
2021/11/02 04:22:20;;;;;;;6.57;2.60;;;;;;;6.57;100.00;99783.88;5267430;28;20110;-69
2021/11/02 04:42:42;;;;;;;5.60;2.50;;;;;;;6.68;100.00;99798.59;5265803;28;20029;-69
2021/11/02 04:42:51;;;;;;;6.07;2.63;;;;;;;6.65;100.00;99787.63;5258665;28;20733;-68
2021/11/02 04:45:42;;;;;;;5.85;2.30;;;;;;;6.73;100.00;99796.41;5259267;28;20037;-69
2021/11/02 04:58:11;;;;;;;5.57;2.50;;;;;;;6.75;100.00;99798.91;5256009;28;20060;-69
2021/11/02 05:13:55;;;;;;;4.90;2.53;;;;;;;6.76;100.00;99797.94;5255050;28;20037;-69
2021/11/02 05:56:21;;;;;;;4.80;2.50;;;;;;;6.77;100.00;99787.38;5264484;28;20082;-68
2021/11/02 05:59:10;;;;;;;4.38;2.88;;;;;;;6.76;100.00;99788.34;5264910;28;20158;-69
2021/11/02 06:04:47;;;;;;;6.82;2.45;;;;;;;6.81;100.00;99787.94;5263178;28;20049;-68
2021/11/02 06:35:57;;;;;;;5.95;2.53;;;;;;;6.96;100.00;99797.03;5266164;28;20499;-69
2021/11/02 06:47:01;;;;;;;7.35;3.97;;;;;;;6.89;100.00;99800.31;5266060;28;20040;-67
2021/11/02 06:58:30;;;;;;;5.45;2.83;;;;;;;7.01;100.00;99813.09;5264158;28;20074;-69
2021/11/02 07:18:14;;;;;;;6.22;3.33;;;;;;;7.03;100.00;99824.19;5259333;28;20530;-69
2021/11/02 07:23:32;;;;;;;5.03;3.03;;;;;;;7.16;100.00;99825.72;5266847;28;21324;-69
2021/11/02 08:46:48;;;;;;;7.50;3.95;;;;;;;8.50;100.00;99833.75;5267117;28;20040;-68
2021/11/02 08:49:20;;;;;;;7.78;4.18;;;;;;;8.57;100.00;99834.00;5262234;28;20289;-70
2021/11/02 08:51:56;;;;;;;6.93;3.92;;;;;;;8.66;100.00;99833.97;5249275;28;20057;-69
2021/11/02 08:54:28;;;;;;;6.30;4.30;;;;;;;8.70;100.00;99826.66;5261984;28;20115;-69
2021/11/02 08:57:00;;;;;;;6.35;4.55;;;;;;;8.75;100.00;99827.06;5262256;28;20090;-69
2021/11/02 08:59:33;;;;;;;5.72;4.18;;;;;;;8.87;100.00;99830.34;5264655;28;20033;-69
2021/11/02 09:02:06;;;;;;;;;;;;;;;9.28;100.00;99826.41;5261483;28;20115;-69
2021/11/02 09:04:44;;;;;;;6.40;4.28;;;;;;;9.06;100.00;99829.44;5261080;28;19920;-68
2021/11/02 09:07:22;;;;;;;7.03;4.90;;;;;;;9.08;100.00;99824.84;5259801;28;20027;-68
2021/11/02 09:09:56;;;;;;;7.55;4.90;;;;;;;9.16;100.00;99832.78;5259620;28;20041;-69
2021/11/02 09:12:31;;;;;;;7.90;4.95;;;;;;;9.15;100.00;99828.53;5263752;28;20131;-69
2021/11/02 09:15:04;;;;;;;7.93;5.13;;;;;;;9.15;100.00;99831.16;5255076;28;20107;-68
2021/11/02 09:17:44;;;;;;;10.15;5.18;;;;;;;9.26;100.00;99828.34;5257297;28;20029;-70
2021/11/02 09:20:16;;;;;;;5.75;4.70;;;;;;;9.22;100.00;99834.84;5262490;28;20490;-68
2021/11/02 09:22:49;;;;;;;10.40;5.17;;;;;;;9.21;100.00;99828.78;5260938;28;20028;-68
2021/11/02 09:25:21;;;;;;;7.75;5.22;;;;;;;9.20;100.00;99829.72;5262492;28;20048;-68
2021/11/02 09:27:52;;;;;;;6.20;4.82;;;;;;;9.29;100.00;99840.31;5264130;28;20070;-68
2021/11/02 09:30:24;;;;;;;11.30;5.18;;;;;;;9.33;100.00;99839.03;5263386;28;20024;-68
2021/11/02 09:32:56;;;;;;;8.02;5.00;;;;;;;9.32;100.00;99839.97;5265285;28;20024;-68
2021/11/02 09:35:32;;;;;;;7.72;5.07;;;;;;;9.40;100.00;99829.63;5261851;28;20489;-68
2021/11/02 09:38:20;;;;;;;11.02;4.85;;;;;;;9.52;100.00;99831.06;5264597;28;20113;-68
2021/11/02 09:41:28;;;;;;;7.68;4.90;;;;;;;9.50;100.00;99828.59;5264971;28;20091;-68
2021/11/02 09:44:11;;;;;;;7.70;4.93;;;;;;;9.60;100.00;99832.94;5233785;28;20047;-68
2021/11/02 09:47:13;;;;;;;6.22;4.88;;;;;;;9.72;100.00;99829.94;5262439;28;20025;-68
2021/11/02 09:49:56;;;;;;;7.93;5.38;;;;;;;9.70;100.00;99828.47;5291856;28;20367;-68
2021/11/02 09:53:15;;;;;;;7.88;5.15;;;;;;;9.91;100.00;99833.38;5260130;28;20051;-68
2021/11/02 09:56:20;;;;;;;8.75;4.80;;;;;;;9.86;100.00;99836.47;5216220;28;20049;-68
2021/11/02 09:59:03;;;;;;;7.30;5.13;;;;;;;9.87;100.00;99832.88;5262532;28;20025;-68
2021/11/02 10:02:08;;;;;;;7.45;5.43;;;;;;;9.88;100.00;99829.25;5262720;28;20406;-68
2021/11/02 10:04:55;;;;;;;8.48;5.03;;;;;;;9.88;100.00;99833.69;5260458;28;20037;-68
2021/11/02 10:07:35;;;;;;;9.75;6.10;;;;;;;9.83;100.00;99828.91;5265926;28;20494;-68
2021/11/02 10:10:12;;;;;;;7.75;5.10;;;;;;;9.83;100.00;99841.97;5260861;28;20394;-69
2021/11/02 10:13:16;;;;;;;8.45;5.68;;;;;;;9.94;100.00;99836.53;5262399;28;20021;-68
2021/11/02 10:16:03;;;;;;;7.75;5.35;;;;;;;9.94;100.00;99833.91;5297092;28;20037;-68
2021/11/02 10:18:44;;;;;;;7.57;5.72;;;;;;;9.92;100.00;99837.63;5260589;28;20494;-68
2021/11/02 10:21:59;;;;;;;6.90;5.15;;;;;;;10.07;100.00;99832.69;5268338;28;20042;-68
2021/11/02 10:24:58;;;;;;;6.90;5.05;;;;;;;10.13;100.00;99832.09;5267540;28;20070;-69
2021/11/02 10:27:48;;;;;;;9.23;4.90;;;;;;;10.11;100.00;99839.25;5267902;28;20559;-69
2021/11/02 10:30:30;;;;;;;8.60;5.22;;;;;;;10.01;100.00;99828.09;5267798;28;20119;-68
2021/11/02 10:33:28;;;;;;;7.93;5.65;;;;;;;10.09;100.00;99833.38;5266078;28;20033;-69
2021/11/02 10:36:37;;;;;;;8.23;6.13;;;;;;;10.03;100.00;99836.59;5261813;28;20080;-69
2021/11/02 10:39:21;;;;;;;7.88;5.13;;;;;;;9.92;100.00;99829.78;5262827;28;20079;-69
2021/11/02 10:42:04;;;;;;;8.05;5.80;;;;;;;9.90;100.00;99826.53;5264089;28;20035;-68
2021/11/02 10:44:48;;;;;;;10.25;5.93;;;;;;;9.91;100.00;99833.38;5265503;28;20524;-68
2021/11/02 10:47:22;;;;;;;9.65;5.82;;;;;;;9.80;100.00;99829.19;5268230;28;20301;-69
2021/11/02 10:50:06;;;;;;;9.10;5.25;;;;;;;9.90;100.00;99829.13;5264081;28;20029;-69
2021/11/02 10:52:39;;;;;;;7.75;5.60;;;;;;;9.80;100.00;99833.63;5268354;28;20102;-69
2021/11/02 10:55:27;;;;;;;8.73;5.82;;;;;;;9.93;100.00;99829.66;5268413;28;20028;-69
2021/11/02 10:58:21;;;;;;;11.60;6.22;;;;;;;9.86;100.00;99826.00;5300368;28;20029;-70
2021/11/02 11:00:52;;;;;;;9.27;5.70;;;;;;;9.84;100.00;99829.72;5268305;28;20032;-69
2021/11/02 11:03:29;;;;;;;8.30;5.43;;;;;;;9.88;100.00;99823.22;5269691;28;20021;-69
2021/11/02 11:06:02;;;;;;;7.88;5.18;;;;;;;9.81;100.00;99830.88;5266776;28;20675;-69
2021/11/02 11:08:42;;;;;;;8.68;5.80;;;;;;;9.87;100.00;99830.25;5265128;28;20496;-69
2021/11/02 11:11:18;;;;;;;9.15;6.00;;;;;;;9.77;100.00;99813.78;5265305;28;20434;-69
2021/11/02 11:13:51;;;;;;;8.75;5.90;;;;;;;9.86;100.00;99823.38;5269479;28;20421;-68
2021/11/02 11:16:25;;;;;;;7.93;6.15;;;;;;;9.94;100.00;99820.81;5266603;28;20086;-68
2021/11/02 11:19:20;;;;;;;8.63;6.03;;;;;;;10.18;100.00;99824.59;5263660;28;20021;-68
2021/11/02 11:21:52;;;;;;;10.25;6.07;;;;;;;10.00;100.00;99808.94;5266903;28;20043;-69
2021/11/02 11:24:59;;;;;;;9.82;6.00;;;;;;;10.19;100.00;99815.75;5265535;28;20388;-68
2021/11/02 11:27:34;;;;;;;8.25;6.28;;;;;;;10.16;100.00;99822.16;5261011;28;20510;-68
2021/11/02 11:30:07;;;;;;;10.82;6.05;;;;;;;10.18;100.00;99819.38;5265914;28;20028;-68
2021/11/02 11:32:40;;;;;;;9.98;6.13;;;;;;;10.19;100.00;99816.63;5263290;28;20387;-68
2021/11/02 11:35:12;;;;;;;9.45;6.40;;;;;;;10.30;100.00;99819.97;5268167;28;20070;-68
2021/11/02 11:37:48;;;;;;;8.48;6.15;;;;;;;10.32;100.00;99816.22;5266313;28;20123;-69
2021/11/02 11:40:23;;;;;;;8.20;6.22;;;;;;;10.39;100.00;99806.78;5264643;28;20028;-68
2021/11/02 11:42:56;;;;;;;8.27;6.15;;;;;;;10.44;100.00;99811.56;5264893;28;20482;-68
2021/11/02 11:45:30;;;;;;;6.28;5.65;;;;;;;10.52;100.00;99803.75;5264479;28;20474;-68
2021/11/02 11:48:11;;;;;;;10.02;5.72;;;;;;;10.58;100.00;99800.50;5263729;28;20013;-68
2021/11/02 11:50:44;;;;;;;9.43;5.45;;;;;;;10.55;100.00;99800.00;5263472;28;20032;-68
2021/11/02 11:53:17;;;;;;;9.98;5.97;;;;;;;10.61;100.00;99797.59;5265450;28;20129;-68
2021/11/02 11:56:08;;;;;;;7.00;5.30;;;;;;;10.78;100.00;99789.78;5262241;28;20539;-68
2021/11/02 11:58:48;;;;;;;7.78;5.18;;;;;;;10.74;100.00;99789.28;5266030;28;20024;-68
2021/11/02 12:01:46;;;;;;;12.40;5.88;;;;;;;10.88;100.00;99787.88;5267041;28;20031;-69
2021/11/02 12:04:33;;;;;;;6.60;5.35;;;;;;;10.78;100.00;99782.75;5265573;28;20032;-68
2021/11/02 12:07:35;;;;;;;6.03;4.82;;;;;;;10.98;100.00;99785.13;5265661;28;20119;-69
2021/11/02 12:10:08;;;;;;;9.00;5.18;;;;;;;10.74;100.00;99778.81;5254565;28;20490;-70
2021/11/02 12:12:40;;;;;;;8.95;5.40;;;;;;;10.71;100.00;99773.88;5263733;28;20032;-69
2021/11/02 12:15:17;;;;;;;8.07;5.07;;;;;;;10.70;100.00;99778.31;5264371;28;20075;-70
2021/11/02 12:17:50;;;;;;;5.32;4.70;;;;;;;10.68;100.00;99776.81;5264759;28;20054;-70
2021/11/02 12:20:23;;;;;;;6.72;4.65;;;;;;;10.59;100.00;99764.66;5265075;28;20478;-69
2021/11/02 12:23:02;;;;;;;10.13;4.77;;;;;;;10.69;100.00;99775.84;5262520;28;20025;-69
2021/11/02 12:25:36;;;;;;;7.13;4.63;;;;;;;10.56;100.00;99772.81;5264435;28;20134;-69
2021/11/02 12:28:42;;;;;;;7.47;4.60;;;;;;;10.71;100.00;99776.50;5265939;28;20020;-69
2021/11/02 12:31:16;;;;;;;8.65;4.32;;;;;;;10.60;100.00;99774.97;5263605;28;20036;-69
2021/11/02 12:33:50;;;;;;;8.00;4.32;;;;;;;10.58;100.00;99776.13;5265033;28;20036;-69
2021/11/02 12:36:24;;;;;;;6.55;3.70;;;;;;;10.55;100.00;99776.44;5260779;28;20060;-69
2021/11/02 12:39:04;;;;;;;8.32;3.60;;;;;;;10.60;100.00;99772.34;5265530;28;20496;-69
2021/11/02 12:41:45;;;;;;;6.15;3.75;;;;;;;10.52;100.00;99771.50;5264708;28;20032;-69
2021/11/02 12:44:18;;;;;;;4.65;3.40;;;;;;;10.48;100.00;99779.66;5263851;28;20020;-69
2021/11/02 12:46:50;;;;;;;7.38;3.72;;;;;;;10.40;100.00;99787.47;5265783;28;20473;-69
2021/11/02 12:49:36;;;;;;;7.25;3.80;;;;;;;10.54;100.00;99787.91;5266705;28;20064;-69
2021/11/02 12:52:11;;;;;;;4.25;3.13;;;;;;;10.38;100.00;99794.69;5266943;28;20143;-69
2021/11/02 12:54:42;;;;;;;6.45;3.30;;;;;;;10.24;100.00;99787.34;5262413;28;20032;-69
2021/11/02 12:57:16;;;;;;;5.40;3.63;;;;;;;10.29;100.00;99794.78;5266497;28;20043;-69
2021/11/02 12:59:58;;;;;;;6.85;3.78;;;;;;;10.27;100.00;99794.13;5262381;28;20032;-69
2021/11/02 13:02:34;;;;;;;7.20;3.67;;;;;;;10.29;100.00;99794.78;5260463;28;20043;-69
2021/11/02 13:05:15;;;;;;;4.13;3.30;;;;;;;10.29;100.00;99794.78;5265835;28;20033;-69
2021/11/02 13:07:50;;;;;;;5.68;2.83;;;;;;;10.21;100.00;99788.47;5263892;28;20029;-69
2021/11/02 13:10:22;;;;;;;5.07;3.00;;;;;;;10.14;100.00;99786.63;5265173;28;20115;-69
2021/11/02 13:13:02;;;;;;;4.75;3.03;;;;;;;10.17;100.00;99802.03;5264372;28;20539;-69
2021/11/02 13:15:50;;;;;;;5.07;2.95;;;;;;;10.31;100.00;99803.31;5264691;28;20029;-69
2021/11/02 13:18:32;;;;;;;7.10;3.13;;;;;;;10.24;100.00;99800.44;5264473;28;20029;-69
2021/11/02 13:21:29;;;;;;;6.60;3.13;;;;;;;10.38;100.00;99796.44;5264172;28;20024;-69
2021/11/02 13:24:13;;;;;;;6.43;3.58;;;;;;;10.39;100.00;99792.88;5298125;28;20107;-69
2021/11/02 13:26:47;;;;;;;4.28;3.75;;;;;;;10.26;100.00;99795.88;5263717;28;20401;-69
2021/11/02 13:29:25;;;;;;;4.40;3.97;;;;;;;10.38;100.00;99799.06;5265535;28;20056;-69
2021/11/02 13:32:00;;;;;;;4.70;4.13;;;;;;;10.43;100.00;99802.88;5263362;28;20123;-70
2021/11/02 13:34:36;;;;;;;5.60;4.50;;;;;;;10.46;100.00;99796.53;5264889;28;20078;-70
2021/11/02 13:37:15;;;;;;;6.72;5.32;;;;;;;10.54;100.00;99801.81;5265884;28;20490;-69
2021/11/02 13:40:01;;;;;;;5.65;5.15;;;;;;;10.59;100.00;99798.72;5265828;28;20054;-69
2021/11/02 13:42:51;;;;;;;7.30;5.78;;;;;;;10.54;100.00;99803.59;5260941;28;20479;-70
2021/11/02 13:45:23;;;;;;;5.95;5.35;;;;;;;10.34;100.00;99798.59;5267111;28;20466;-70
2021/11/02 13:47:55;;;;;;;7.22;6.18;;;;;;;10.38;100.00;99799.91;5263565;28;20020;-69
2021/11/02 13:50:26;;;;;;;6.28;5.35;;;;;;;10.28;100.00;99793.94;5263948;28;20542;-70
2021/11/02 13:52:58;;;;;;;6.90;5.13;;;;;;;10.28;100.00;99795.75;5263761;28;20045;-69
2021/11/02 13:55:30;;;;;;;6.20;5.30;;;;;;;10.31;100.00;99798.88;5262960;28;20024;-69
2021/11/02 13:58:01;;;;;;;6.40;5.65;;;;;;;10.27;100.00;99802.78;5263652;28;20310;-69
2021/11/02 14:00:33;;;;;;;7.32;6.03;;;;;;;10.22;100.00;99802.38;5264870;28;20029;-69
2021/11/02 14:03:10;;;;;;;7.40;6.50;;;;;;;10.32;100.00;99799.69;5263597;28;20028;-69
2021/11/02 14:05:45;;;;;;;7.10;6.40;;;;;;;10.31;100.00;99811.97;5264989;28;20025;-70
2021/11/02 14:08:22;;;;;;;8.75;7.18;;;;;;;10.35;100.00;99809.88;5265852;28;20069;-69
2021/11/02 14:10:57;;;;;;;9.68;6.60;;;;;;;10.34;100.00;99806.44;5262555;28;20028;-70
2021/11/02 14:13:44;;;;;;;7.40;5.88;;;;;;;10.46;100.00;99810.44;5263357;28;20036;-70
2021/11/02 14:16:28;;;;;;;8.20;6.82;;;;;;;10.40;100.00;99816.28;5264784;28;20038;-70
2021/11/02 14:19:00;;;;;;;;;;;;;;;10.78;100.00;99813.38;5264943;28;20028;-70
2021/11/02 14:21:51;;;;;;;7.53;6.78;;;;;;;10.51;100.00;99809.97;5266136;28;20270;-69
2021/11/02 14:24:32;;;;;;;7.72;7.00;;;;;;;10.43;100.00;99815.97;5265969;28;20437;-70
2021/11/02 14:27:06;;;;;;;9.05;7.70;;;;;;;10.33;100.00;99806.56;5263752;28;20025;-69
2021/11/02 14:29:55;;;;;;;10.45;8.57;;;;;;;10.46;100.00;99817.47;5262194;28;20037;-69
2021/11/02 14:32:35;;;;;;;10.95;9.85;;;;;;;10.41;100.00;99817.09;5260210;28;20028;-70
2021/11/02 14:35:09;;;;;;;11.10;9.18;;;;;;;10.38;100.00;99820.00;5262382;28;20032;-70
2021/11/02 14:37:50;;;;;;;11.10;10.05;;;;;;;10.44;100.00;99822.84;5263802;28;20417;-69
2021/11/02 14:40:35;;;;;;;12.20;11.00;;;;;;;10.50;100.00;99831.09;5262661;28;20045;-70
2021/11/02 14:43:12;;;;;;;12.13;10.95;;;;;;;10.47;100.00;99827.78;5266206;28;20021;-69
2021/11/02 14:45:50;;;;;;;13.40;12.00;;;;;;;10.37;100.00;99832.28;5264532;28;20033;-70
2021/11/02 14:48:59;;;;;;;12.77;11.60;;;;;;;10.46;100.00;99839.25;5264448;28;20124;-70
2021/11/02 14:51:32;;;;;;;12.18;10.98;;;;;;;10.37;100.00;99828.84;5228313;28;20053;-69
2021/11/02 14:54:21;;;;;;;14.50;13.10;;;;;;;10.51;100.00;99830.91;5264106;28;20029;-70
2021/11/02 14:56:53;;;;;;;12.70;11.50;;;;;;;10.34;100.00;99837.00;5264671;28;20025;-70
2021/11/02 14:59:52;;;;;;;13.60;12.13;;;;;;;10.52;100.00;99829.13;5264304;28;20029;-69
2021/11/02 15:02:37;;;;;;;13.07;11.77;;;;;;;10.41;100.00;99831.00;5256367;28;20029;-69
2021/11/02 15:05:18;;;;;;;13.35;11.90;;;;;;;10.30;100.00;99839.09;5266179;28;20059;-70
2021/11/02 15:07:51;;;;;;;12.15;11.05;;;;;;;10.16;100.00;99840.47;5265949;28;20075;-70
2021/11/02 15:10:22;;;;;;;13.27;10.30;;;;;;;10.19;100.00;99845.41;5266667;28;20052;-70
2021/11/02 15:12:54;;;;;;;13.88;12.30;;;;;;;10.12;100.00;99849.59;5267642;28;20438;-69
2021/11/02 15:15:28;;;;;;;14.82;12.20;;;;;;;10.14;100.00;99852.88;5266609;28;20107;-69
2021/11/02 15:18:08;;;;;;;12.45;11.32;;;;;;;10.19;100.00;99848.03;5268159;28;20053;-70
2021/11/02 15:20:39;;;;;;;12.32;11.13;;;;;;;10.04;100.00;99843.44;5262571;28;20407;-69
2021/11/02 15:23:11;;;;;;;12.63;11.32;;;;;;;10.04;100.00;99851.31;5267647;28;20020;-69
2021/11/02 15:25:43;;;;;;;12.35;11.07;;;;;;;10.02;100.00;99850.66;5268334;28;20078;-70
2021/11/02 15:28:15;;;;;;;12.85;11.55;;;;;;;10.07;100.00;99856.25;5266706;28;20029;-69
2021/11/02 15:30:49;;;;;;;13.10;11.48;;;;;;;10.03;100.00;99853.09;5264054;28;20474;-70
2021/11/02 15:33:32;;;;;;;12.07;10.77;;;;;;;10.12;100.00;99846.16;5267182;28;20040;-69
2021/11/02 15:36:21;;;;;;;12.73;11.53;;;;;;;10.09;100.00;99847.28;5266510;28;20036;-72
2021/11/02 15:38:58;;;;;;;13.90;11.73;;;;;;;10.02;100.00;99851.47;5267090;28;20078;-72
2021/11/02 15:41:31;;;;;;;13.68;12.00;;;;;;;9.94;100.00;99854.84;5266230;28;20032;-73
2021/11/02 15:44:05;;;;;;;13.13;11.48;;;;;;;9.98;100.00;99853.56;5267408;28;20071;-70
2021/11/02 15:46:39;;;;;;;13.40;12.10;;;;;;;9.91;100.00;99849.91;5270194;28;20071;-70
2021/11/02 15:49:13;;;;;;;14.32;12.27;;;;;;;9.94;100.00;99852.22;5266725;28;20036;-70
2021/11/02 15:51:57;;;;;;;15.15;11.98;;;;;;;10.04;100.00;99859.16;5263896;28;20101;-69
2021/11/02 15:54:28;;;;;;;12.35;11.02;;;;;;;9.82;100.00;99853.44;5267780;28;20025;-69
2021/11/02 15:57:12;;;;;;;13.00;11.73;;;;;;;9.96;100.00;99865.13;5267756;28;20028;-70
2021/11/02 15:59:43;;;;;;;15.13;11.93;;;;;;;9.78;100.00;99865.16;5268577;28;20033;-69
2021/11/02 16:02:33;;;;;;;12.73;11.50;;;;;;;9.92;100.00;99866.41;5265368;28;20640;-69
2021/11/02 16:05:10;;;;;;;12.40;11.20;;;;;;;9.83;100.00;99872.56;5264584;28;20355;-70
2021/11/02 16:07:41;;;;;;;12.82;11.52;;;;;;;9.73;100.00;99873.44;5268300;28;20033;-69
2021/11/02 16:10:14;;;;;;;13.00;11.70;;;;;;;9.66;100.00;99869.78;5266912;28;20021;-70
2021/11/02 16:12:47;;;;;;;13.27;12.07;;;;;;;9.63;100.00;99874.50;5267093;28;20536;-70
2021/11/02 16:15:21;;;;;;;13.25;11.85;;;;;;;9.61;100.00;99868.56;5264458;28;20575;-70
2021/11/02 16:17:56;;;;;;;15.02;12.43;;;;;;;9.50;100.00;99866.97;5265841;28;20021;-70
2021/11/02 16:20:30;;;;;;;13.10;11.70;;;;;;;9.50;100.00;99877.44;5260846;28;20039;-69
2021/11/02 16:23:07;;;;;;;12.20;10.98;;;;;;;9.46;100.00;99866.44;5260426;28;20509;-69
2021/11/02 16:25:46;;;;;;;12.38;11.00;;;;;;;9.45;100.00;99870.03;5260461;28;20056;-70
2021/11/02 16:28:37;;;;;;;12.80;11.43;;;;;;;9.38;100.00;99868.97;5266794;28;20024;-69
2021/11/02 16:31:09;;;;;;;12.70;11.40;;;;;;;9.34;100.00;99870.25;5266370;28;20032;-69
2021/11/02 16:33:44;;;;;;;12.60;10.65;;;;;;;9.27;100.00;99871.78;5265446;28;20037;-69
2021/11/02 16:36:21;;;;;;;12.60;11.30;;;;;;;9.30;100.00;99870.69;5263395;28;20360;-69
2021/11/02 16:39:01;;;;;;;13.27;11.88;;;;;;;9.32;100.00;99872.19;5259467;28;20029;-69
2021/11/02 16:41:40;;;;;;;13.07;11.55;;;;;;;9.15;100.00;99870.34;5265648;28;20028;-69
2021/11/02 16:44:16;;;;;;;13.27;10.75;;;;;;;9.17;100.00;99889.34;5259117;28;20032;-69
2021/11/02 16:46:51;;;;;;;13.00;11.52;;;;;;;9.12;100.00;99884.50;5258688;28;20032;-69
2021/11/02 16:49:25;;;;;;;12.18;10.65;;;;;;;9.08;100.00;99877.94;5258831;28;20017;-69
2021/11/02 16:52:28;;;;;;;10.88;9.82;;;;;;;9.26;100.00;99883.22;5259336;28;20049;-69
2021/11/02 16:55:13;;;;;;;10.73;9.60;;;;;;;9.13;100.00;99887.94;5255040;28;20045;-69
2021/11/02 16:57:45;;;;;;;10.75;9.13;;;;;;;8.94;100.00;99884.47;5259402;28;20032;-69
2021/11/02 17:00:27;;;;;;;10.10;8.85;;;;;;;9.10;100.00;99893.47;5259295;28;20482;-69
2021/11/02 17:03:05;;;;;;;9.98;8.45;;;;;;;9.01;100.00;99887.31;5258761;28;20028;-69
2021/11/02 17:05:37;;;;;;;9.57;8.57;;;;;;;8.86;100.00;99894.78;5255710;28;20029;-69